sensor_id;sensor_type;location;lat;lon;timestamp;pressure;altitude;pressure_sealevel;temperature;humidity
34696;BME280;75243;51.138;17.370;2024-02-04T00:02:05;100119.80;;;7.26;100.00
34696;BME280;75243;51.138;17.370;2024-02-04T00:05:07;100121.73;;;7.24;100.00
34696;BME280;75243;51.138;17.370;2024-02-04T00:08:08;100119.19;;;7.24;100.00
34696;BME280;75243;51.138;17.370;2024-02-04T00:11:09;100114.27;;;7.23;100.00
34696;BME280;75243;51.138;17.370;2024-02-04T00:14:12;100105.95;;;7.24;100.00
34696;BME280;75243;51.138;17.370;2024-02-04T00:17:15;100108.57;;;7.24;100.00
34696;BME280;75243;51.138;17.370;2024-02-04T00:20:16;100103.16;;;7.23;100.00
34696;BME280;75243;51.138;17.370;2024-02-04T00:23:16;100110.21;;;7.22;100.00
34696;BME280;75243;51.138;17.370;2024-02-04T00:26:17;100113.15;;;7.20;100.00
34696;BME280;75243;51.138;17.370;2024-02-04T00:29:17;100116.20;;;7.17;100.00
34696;BME280;75243;51.138;17.370;2024-02-04T00:32:18;100113.91;;;7.16;100.00
34696;BME280;75243;51.138;17.370;2024-02-04T00:35:19;100114.20;;;7.14;100.00
34696;BME280;75243;51.138;17.370;2024-02-04T00:38:19;100108.39;;;7.12;100.00
34696;BME280;75243;51.138;17.370;2024-02-04T00:41:20;100115.21;;;7.13;100.00
34696;BME280;75243;51.138;17.370;2024-02-04T00:44:21;100115.66;;;7.12;100.00
34696;BME280;75243;51.138;17.370;2024-02-04T00:47:21;100119.80;;;7.11;100.00
34696;BME280;75243;51.138;17.370;2024-02-04T00:50:22;100123.09;;;7.10;100.00
34696;BME280;75243;51.138;17.370;2024-02-04T00:53:23;100121.71;;;7.09;99.97
34696;BME280;75243;51.138;17.370;2024-02-04T00:56:23;100120.26;;;7.08;99.98
34696;BME280;75243;51.138;17.370;2024-02-04T00:59:24;100118.10;;;7.07;99.93
34696;BME280;75243;51.138;17.370;2024-02-04T01:02:24;100116.92;;;7.06;99.54
34696;BME280;75243;51.138;17.370;2024-02-04T01:05:25;100122.06;;;7.06;99.64
34696;BME280;75243;51.138;17.370;2024-02-04T01:08:25;100123.23;;;7.02;99.58
34696;BME280;75243;51.138;17.370;2024-02-04T01:11:26;100124.23;;;6.98;99.65
34696;BME280;75243;51.138;17.370;2024-02-04T01:14:26;100127.74;;;6.92;99.42
34696;BME280;75243;51.138;17.370;2024-02-04T01:17:27;100125.67;;;6.88;99.41
34696;BME280;75243;51.138;17.370;2024-02-04T01:20:28;100123.48;;;6.85;99.22
34696;BME280;75243;51.138;17.370;2024-02-04T01:23:28;100122.05;;;6.81;99.09
34696;BME280;75243;51.138;17.370;2024-02-04T01:26:29;100122.83;;;6.79;99.05
34696;BME280;75243;51.138;17.370;2024-02-04T01:29:30;100118.96;;;6.75;99.12
34696;BME280;75243;51.138;17.370;2024-02-04T01:32:30;100116.64;;;6.70;98.98
34696;BME280;75243;51.138;17.370;2024-02-04T01:35:31;100117.34;;;6.64;98.58
34696;BME280;75243;51.138;17.370;2024-02-04T01:38:31;100111.50;;;6.64;98.60
34696;BME280;75243;51.138;17.370;2024-02-04T01:41:32;100108.57;;;6.62;98.15
34696;BME280;75243;51.138;17.370;2024-02-04T01:44:33;100106.02;;;6.59;97.82
34696;BME280;75243;51.138;17.370;2024-02-04T01:47:34;100112.69;;;6.55;97.90
34696;BME280;75243;51.138;17.370;2024-02-04T01:50:35;100119.36;;;6.49;97.67
34696;BME280;75243;51.138;17.370;2024-02-04T01:53:35;100114.98;;;6.47;97.78
34696;BME280;75243;51.138;17.370;2024-02-04T01:56:39;100116.69;;;6.44;97.63
34696;BME280;75243;51.138;17.370;2024-02-04T01:59:40;100123.90;;;6.42;97.77
34696;BME280;75243;51.138;17.370;2024-02-04T02:02:41;100119.06;;;6.39;97.72
34696;BME280;75243;51.138;17.370;2024-02-04T02:05:41;100109.18;;;6.38;97.51
34696;BME280;75243;51.138;17.370;2024-02-04T02:08:42;100112.15;;;6.38;97.64
34696;BME280;75243;51.138;17.370;2024-02-04T02:11:45;100115.23;;;6.39;97.69
34696;BME280;75243;51.138;17.370;2024-02-04T02:14:54;100124.48;;;6.41;97.77
34696;BME280;75243;51.138;17.370;2024-02-04T02:17:59;100125.25;;;6.43;97.93
34696;BME280;75243;51.138;17.370;2024-02-04T02:27:25;100136.15;;;6.48;98.07
34696;BME280;75243;51.138;17.370;2024-02-04T02:30:25;100133.52;;;6.48;98.29
34696;BME280;75243;51.138;17.370;2024-02-04T02:33:28;100120.46;;;6.49;98.39
34696;BME280;75243;51.138;17.370;2024-02-04T02:36:30;100107.65;;;6.50;98.56
34696;BME280;75243;51.138;17.370;2024-02-04T02:39:40;100103.51;;;6.50;98.97
34696;BME280;75243;51.138;17.370;2024-02-04T02:42:43;100096.71;;;6.51;98.95
34696;BME280;75243;51.138;17.370;2024-02-04T02:45:46;100094.05;;;6.53;99.34
34696;BME280;75243;51.138;17.370;2024-02-04T02:48:47;100100.62;;;6.54;99.40
34696;BME280;75243;51.138;17.370;2024-02-04T02:51:47;100104.02;;;6.56;99.42
34696;BME280;75243;51.138;17.370;2024-02-04T02:54:48;100104.00;;;6.56;99.88
34696;BME280;75243;51.138;17.370;2024-02-04T02:57:48;100100.98;;;6.56;99.98
34696;BME280;75243;51.138;17.370;2024-02-04T03:00:49;100101.28;;;6.57;100.00
34696;BME280;75243;51.138;17.370;2024-02-04T03:03:50;100091.86;;;6.54;100.00
34696;BME280;75243;51.138;17.370;2024-02-04T03:06:50;100099.67;;;6.55;100.00
34696;BME280;75243;51.138;17.370;2024-02-04T03:09:52;100099.30;;;6.55;100.00
34696;BME280;75243;51.138;17.370;2024-02-04T03:12:55;100097.89;;;6.56;100.00
34696;BME280;75243;51.138;17.370;2024-02-04T03:15:56;100093.05;;;6.57;100.00
34696;BME280;75243;51.138;17.370;2024-02-04T03:18:56;100087.56;;;6.59;100.00
34696;BME280;75243;51.138;17.370;2024-02-04T03:21:57;100083.56;;;6.60;100.00
34696;BME280;75243;51.138;17.370;2024-02-04T03:24:58;100075.38;;;6.59;100.00
34696;BME280;75243;51.138;17.370;2024-02-04T03:27:58;100072.62;;;6.55;100.00
34696;BME280;75243;51.138;17.370;2024-02-04T03:30:59;100071.34;;;6.52;100.00
34696;BME280;75243;51.138;17.370;2024-02-04T03:34:00;100074.88;;;6.50;100.00
34696;BME280;75243;51.138;17.370;2024-02-04T03:37:00;100079.46;;;6.46;100.00
34696;BME280;75243;51.138;17.370;2024-02-04T03:40:01;100083.64;;;6.44;100.00
34696;BME280;75243;51.138;17.370;2024-02-04T03:43:02;100081.71;;;6.42;99.95
34696;BME280;75243;51.138;17.370;2024-02-04T03:46:03;100098.17;;;6.37;99.51
34696;BME280;75243;51.138;17.370;2024-02-04T03:49:03;100106.45;;;6.31;99.18
34696;BME280;75243;51.138;17.370;2024-02-04T03:52:04;100102.34;;;6.26;98.98
34696;BME280;75243;51.138;17.370;2024-02-04T03:55:07;100108.50;;;6.20;98.55
34696;BME280;75243;51.138;17.370;2024-02-04T03:58:08;100109.73;;;6.13;98.27
34696;BME280;75243;51.138;17.370;2024-02-04T04:01:11;100110.96;;;6.06;98.31
34696;BME280;75243;51.138;17.370;2024-02-04T04:04:15;100120.45;;;6.01;97.92
34696;BME280;75243;51.138;17.370;2024-02-04T04:07:16;100121.34;;;5.96;97.88
34696;BME280;75243;51.138;17.370;2024-02-04T04:10:17;100121.52;;;5.94;97.93
34696;BME280;75243;51.138;17.370;2024-02-04T04:13:17;100126.54;;;5.93;97.62
34696;BME280;75243;51.138;17.370;2024-02-04T04:16:20;100123.91;;;5.89;97.31
34696;BME280;75243;51.138;17.370;2024-02-04T04:19:20;100126.48;;;5.83;97.25
34696;BME280;75243;51.138;17.370;2024-02-04T04:22:21;100121.82;;;5.78;96.81
34696;BME280;75243;51.138;17.370;2024-02-04T04:25:21;100120.42;;;5.76;96.66
34696;BME280;75243;51.138;17.370;2024-02-04T04:28:22;100134.02;;;5.74;96.34
34696;BME280;75243;51.138;17.370;2024-02-04T04:31:26;100139.52;;;5.69;96.19
34696;BME280;75243;51.138;17.370;2024-02-04T04:34:26;100141.42;;;5.63;96.02
34696;BME280;75243;51.138;17.370;2024-02-04T04:37:27;100144.17;;;5.58;95.81
34696;BME280;75243;51.138;17.370;2024-02-04T04:40:27;100144.05;;;5.57;95.60
34696;BME280;75243;51.138;17.370;2024-02-04T04:43:30;100146.00;;;5.57;95.10
34696;BME280;75243;51.138;17.370;2024-02-04T04:46:30;100143.58;;;5.59;94.90
34696;BME280;75243;51.138;17.370;2024-02-04T04:49:31;100147.33;;;5.62;94.61
34696;BME280;75243;51.138;17.370;2024-02-04T04:52:32;100144.23;;;5.63;94.40
34696;BME280;75243;51.138;17.370;2024-02-04T04:55:33;100150.80;;;5.65;94.22
34696;BME280;75243;51.138;17.370;2024-02-04T04:58:34;100136.67;;;5.63;93.79
34696;BME280;75243;51.138;17.370;2024-02-04T05:01:35;100137.61;;;5.65;93.53
34696;BME280;75243;51.138;17.370;2024-02-04T05:04:36;100133.64;;;5.64;93.36
34696;BME280;75243;51.138;17.370;2024-02-04T05:07:36;100135.63;;;5.61;93.21
34696;BME280;75243;51.138;17.370;2024-02-04T05:10:37;100138.91;;;5.56;92.71
34696;BME280;75243;51.138;17.370;2024-02-04T05:13:38;100139.03;;;5.51;92.58
34696;BME280;75243;51.138;17.370;2024-02-04T05:16:39;100137.10;;;5.45;92.60
34696;BME280;75243;51.138;17.370;2024-02-04T05:19:42;100134.92;;;5.39;92.34
34696;BME280;75243;51.138;17.370;2024-02-04T05:22:43;100138.91;;;5.33;92.52
34696;BME280;75243;51.138;17.370;2024-02-04T05:25:43;100136.42;;;5.30;92.43
34696;BME280;75243;51.138;17.370;2024-02-04T05:28:44;100140.58;;;5.27;92.49
34696;BME280;75243;51.138;17.370;2024-02-04T05:31:46;100145.95;;;5.21;92.33
34696;BME280;75243;51.138;17.370;2024-02-04T05:34:47;100147.98;;;5.14;92.37
34696;BME280;75243;51.138;17.370;2024-02-04T05:37:47;100148.71;;;5.07;92.32
34696;BME280;75243;51.138;17.370;2024-02-04T05:40:48;100152.63;;;5.05;92.62
34696;BME280;75243;51.138;17.370;2024-02-04T05:43:48;100158.43;;;5.03;92.54
34696;BME280;75243;51.138;17.370;2024-02-04T05:46:49;100153.16;;;5.01;92.43
34696;BME280;75243;51.138;17.370;2024-02-04T05:49:51;100147.78;;;4.98;92.32
34696;BME280;75243;51.138;17.370;2024-02-04T05:52:51;100148.08;;;4.94;92.03
34696;BME280;75243;51.138;17.370;2024-02-04T05:55:52;100145.27;;;4.90;91.87
34696;BME280;75243;51.138;17.370;2024-02-04T05:58:52;100143.04;;;4.87;92.26
34696;BME280;75243;51.138;17.370;2024-02-04T06:01:53;100150.92;;;4.86;91.99
34696;BME280;75243;51.138;17.370;2024-02-04T06:04:53;100150.85;;;4.84;91.88
34696;BME280;75243;51.138;17.370;2024-02-04T06:07:54;100154.77;;;4.85;91.91
34696;BME280;75243;51.138;17.370;2024-02-04T06:10:55;100149.98;;;4.86;91.91
34696;BME280;75243;51.138;17.370;2024-02-04T06:13:58;100148.23;;;4.86;91.65
34696;BME280;75243;51.138;17.370;2024-02-04T06:16:59;100151.88;;;4.86;91.92
34696;BME280;75243;51.138;17.370;2024-02-04T06:20:10;100149.09;;;4.84;91.75
34696;BME280;75243;51.138;17.370;2024-02-04T06:23:11;100146.46;;;4.82;91.80
34696;BME280;75243;51.138;17.370;2024-02-04T06:26:11;100152.78;;;4.78;91.97
34696;BME280;75243;51.138;17.370;2024-02-04T06:29:12;100155.69;;;4.75;91.91
34696;BME280;75243;51.138;17.370;2024-02-04T06:32:12;100162.17;;;4.72;91.82
34696;BME280;75243;51.138;17.370;2024-02-04T06:35:14;100156.35;;;4.73;91.89
34696;BME280;75243;51.138;17.370;2024-02-04T06:38:15;100154.20;;;4.74;91.82
34696;BME280;75243;51.138;17.370;2024-02-04T06:41:16;100148.15;;;4.73;91.76
34696;BME280;75243;51.138;17.370;2024-02-04T06:44:17;100148.17;;;4.70;91.68
34696;BME280;75243;51.138;17.370;2024-02-04T06:47:18;100155.61;;;4.67;91.79
34696;BME280;75243;51.138;17.370;2024-02-04T06:50:18;100165.24;;;4.65;92.11
34696;BME280;75243;51.138;17.370;2024-02-04T06:53:19;100173.67;;;4.63;92.22
34696;BME280;75243;51.138;17.370;2024-02-04T06:56:22;100177.36;;;4.60;92.29
34696;BME280;75243;51.138;17.370;2024-02-04T06:59:23;100179.11;;;4.58;92.20
34696;BME280;75243;51.138;17.370;2024-02-04T07:02:24;100183.43;;;4.59;92.40
34696;BME280;75243;51.138;17.370;2024-02-04T07:05:24;100173.65;;;4.61;92.32
34696;BME280;75243;51.138;17.370;2024-02-04T07:08:25;100170.67;;;4.63;92.68
34696;BME280;75243;51.138;17.370;2024-02-04T07:11:26;100170.01;;;4.65;92.40
34696;BME280;75243;51.138;17.370;2024-02-04T07:14:26;100166.43;;;4.68;92.62
34696;BME280;75243;51.138;17.370;2024-02-04T07:17:27;100157.35;;;4.69;92.44
34696;BME280;75243;51.138;17.370;2024-02-04T07:20:27;100154.05;;;4.73;92.57
34696;BME280;75243;51.138;17.370;2024-02-04T07:23:28;100152.43;;;4.80;92.62
34696;BME280;75243;51.138;17.370;2024-02-04T07:26:28;100148.13;;;4.87;92.45
34696;BME280;75243;51.138;17.370;2024-02-04T07:29:29;100142.91;;;4.93;92.48
34696;BME280;75243;51.138;17.370;2024-02-04T07:32:32;100137.69;;;5.01;92.20
34696;BME280;75243;51.138;17.370;2024-02-04T07:35:34;100132.05;;;5.09;92.33
34696;BME280;75243;51.138;17.370;2024-02-04T07:38:35;100135.13;;;5.21;92.16
34696;BME280;75243;51.138;17.370;2024-02-04T07:41:35;100145.80;;;5.31;91.97
34696;BME280;75243;51.138;17.370;2024-02-04T07:44:36;100149.30;;;5.42;92.11
34696;BME280;75243;51.138;17.370;2024-02-04T07:47:37;100154.59;;;5.53;91.98
34696;BME280;75243;51.138;17.370;2024-02-04T07:50:37;100148.03;;;5.66;91.65
34696;BME280;75243;51.138;17.370;2024-02-04T07:53:38;100143.98;;;5.80;91.22
34696;BME280;75243;51.138;17.370;2024-02-04T07:56:39;100152.67;;;5.93;90.76
34696;BME280;75243;51.138;17.370;2024-02-04T07:59:39;100153.55;;;6.03;89.98
34696;BME280;75243;51.138;17.370;2024-02-04T08:02:43;100147.20;;;6.12;90.26
34696;BME280;75243;51.138;17.370;2024-02-04T08:05:44;100147.91;;;6.19;89.96
34696;BME280;75243;51.138;17.370;2024-02-04T08:08:44;100150.73;;;6.23;89.10
34696;BME280;75243;51.138;17.370;2024-02-04T08:11:45;100149.96;;;6.34;88.98
34696;BME280;75243;51.138;17.370;2024-02-04T08:14:46;100153.27;;;6.51;89.45
34696;BME280;75243;51.138;17.370;2024-02-04T08:17:46;100141.17;;;6.84;89.50
34696;BME280;75243;51.138;17.370;2024-02-04T08:20:47;100138.11;;;7.16;88.34
34696;BME280;75243;51.138;17.370;2024-02-04T08:23:47;100142.36;;;7.44;86.86
34696;BME280;75243;51.138;17.370;2024-02-04T08:26:49;100143.91;;;7.72;86.60
34696;BME280;75243;51.138;17.370;2024-02-04T08:29:49;100141.73;;;8.00;86.23
34696;BME280;75243;51.138;17.370;2024-02-04T08:32:50;100136.15;;;8.35;86.31
34696;BME280;75243;51.138;17.370;2024-02-04T08:35:50;100138.20;;;8.65;84.09
34696;BME280;75243;51.138;17.370;2024-02-04T08:38:51;100130.33;;;8.88;83.48
34696;BME280;75243;51.138;17.370;2024-02-04T08:41:51;100122.92;;;9.08;82.65
34696;BME280;75243;51.138;17.370;2024-02-04T08:44:52;100116.13;;;9.26;81.65
34696;BME280;75243;51.138;17.370;2024-02-04T08:47:52;100116.60;;;9.36;79.56
34696;BME280;75243;51.138;17.370;2024-02-04T08:50:53;100119.11;;;9.38;79.44
34696;BME280;75243;51.138;17.370;2024-02-04T08:53:56;100125.81;;;9.55;79.48
34696;BME280;75243;51.138;17.370;2024-02-04T08:56:57;100122.84;;;9.58;77.92
34696;BME280;75243;51.138;17.370;2024-02-04T08:59:58;100116.14;;;9.24;76.72
34696;BME280;75243;51.138;17.370;2024-02-04T09:02:58;100113.92;;;8.94;76.47
34696;BME280;75243;51.138;17.370;2024-02-04T09:05:59;100109.02;;;8.88;76.89
34696;BME280;75243;51.138;17.370;2024-02-04T09:08:59;100107.34;;;8.89;76.42
34696;BME280;75243;51.138;17.370;2024-02-04T09:12:00;100110.55;;;8.75;75.74
34696;BME280;75243;51.138;17.370;2024-02-04T09:15:00;100106.04;;;8.64;75.78
34696;BME280;75243;51.138;17.370;2024-02-04T09:18:01;100087.08;;;8.50;74.67
34696;BME280;75243;51.138;17.370;2024-02-04T09:21:01;100077.15;;;8.48;74.90
34696;BME280;75243;51.138;17.370;2024-02-04T09:24:02;100078.02;;;8.46;75.49
34696;BME280;75243;51.138;17.370;2024-02-04T09:27:03;100078.25;;;8.50;74.91
34696;BME280;75243;51.138;17.370;2024-02-04T09:30:04;100089.33;;;8.62;74.38
34696;BME280;75243;51.138;17.370;2024-02-04T09:33:08;100083.70;;;8.63;73.04
34696;BME280;75243;51.138;17.370;2024-02-04T09:36:09;100084.98;;;8.48;72.96
34696;BME280;75243;51.138;17.370;2024-02-04T09:39:27;100086.19;;;8.29;73.03
34696;BME280;75243;51.138;17.370;2024-02-04T09:42:31;100084.66;;;8.09;72.48
34696;BME280;75243;51.138;17.370;2024-02-04T09:45:34;100079.77;;;8.05;73.41
34696;BME280;75243;51.138;17.370;2024-02-04T09:48:35;100070.11;;;8.21;74.23
34696;BME280;75243;51.138;17.370;2024-02-04T09:51:39;100071.56;;;8.24;73.22
34696;BME280;75243;51.138;17.370;2024-02-04T09:54:49;100079.34;;;8.17;73.33
34696;BME280;75243;51.138;17.370;2024-02-04T09:57:53;100076.73;;;8.05;72.54
34696;BME280;75243;51.138;17.370;2024-02-04T10:00:53;100070.95;;;7.94;72.75
34696;BME280;75243;51.138;17.370;2024-02-04T10:03:55;100076.33;;;7.90;73.33
34696;BME280;75243;51.138;17.370;2024-02-04T10:06:55;100066.02;;;7.89;73.79
34696;BME280;75243;51.138;17.370;2024-02-04T10:09:56;100054.92;;;7.91;73.57
34696;BME280;75243;51.138;17.370;2024-02-04T10:12:57;100050.54;;;7.98;73.56
34696;BME280;75243;51.138;17.370;2024-02-04T10:15:57;100052.27;;;8.10;73.95
34696;BME280;75243;51.138;17.370;2024-02-04T10:18:59;100041.77;;;8.12;72.92
34696;BME280;75243;51.138;17.370;2024-02-04T10:22:01;100033.81;;;8.04;72.34
34696;BME280;75243;51.138;17.370;2024-02-04T10:25:08;100025.71;;;7.96;72.28
34696;BME280;75243;51.138;17.370;2024-02-04T10:28:15;100035.00;;;7.93;73.34
34696;BME280;75243;51.138;17.370;2024-02-04T10:31:16;100027.08;;;7.93;73.43
34696;BME280;75243;51.138;17.370;2024-02-04T10:34:17;100027.81;;;7.91;73.61
34696;BME280;75243;51.138;17.370;2024-02-04T10:37:17;100015.20;;;7.83;73.15
34696;BME280;75243;51.138;17.370;2024-02-04T10:40:18;100013.10;;;7.72;73.06
34696;BME280;75243;51.138;17.370;2024-02-04T10:43:18;100011.45;;;7.68;74.07
34696;BME280;75243;51.138;17.370;2024-02-04T10:46:22;100003.99;;;7.66;74.30
34696;BME280;75243;51.138;17.370;2024-02-04T10:49:23;100002.33;;;7.65;74.25
34696;BME280;75243;51.138;17.370;2024-02-04T10:52:29;100001.45;;;7.63;74.34
34696;BME280;75243;51.138;17.370;2024-02-04T10:55:33;99990.82;;;7.59;74.41
34696;BME280;75243;51.138;17.370;2024-02-04T10:58:40;100000.44;;;7.61;75.29
34696;BME280;75243;51.138;17.370;2024-02-04T11:01:49;100000.83;;;7.64;75.58
34696;BME280;75243;51.138;17.370;2024-02-04T11:04:52;99988.25;;;7.71;75.92
34696;BME280;75243;51.138;17.370;2024-02-04T11:07:53;99977.90;;;7.81;75.85
34696;BME280;75243;51.138;17.370;2024-02-04T11:10:55;99970.31;;;7.88;75.82
34696;BME280;75243;51.138;17.370;2024-02-04T11:13:56;99966.54;;;7.96;76.01
34696;BME280;75243;51.138;17.370;2024-02-04T11:26:50;99940.95;;;8.16;76.29
34696;BME280;75243;51.138;17.370;2024-02-04T11:29:51;99937.13;;;8.18;76.33
34696;BME280;75243;51.138;17.370;2024-02-04T11:32:51;99923.48;;;8.21;76.28
34696;BME280;75243;51.138;17.370;2024-02-04T11:35:58;99913.70;;;8.28;76.90
34696;BME280;75243;51.138;17.370;2024-02-04T11:39:10;99903.42;;;8.40;77.16
34696;BME280;75243;51.138;17.370;2024-02-04T11:42:14;99901.54;;;8.51;77.25
34696;BME280;75243;51.138;17.370;2024-02-04T11:45:18;99899.20;;;8.59;77.46
34696;BME280;75243;51.138;17.370;2024-02-04T11:48:19;99907.77;;;8.63;77.48
34696;BME280;75243;51.138;17.370;2024-02-04T11:51:22;99905.94;;;8.65;77.84
34696;BME280;75243;51.138;17.370;2024-02-04T11:54:25;99907.80;;;8.62;77.82
34696;BME280;75243;51.138;17.370;2024-02-04T11:57:26;99909.48;;;8.55;77.84
34696;BME280;75243;51.138;17.370;2024-02-04T12:00:27;99902.34;;;8.43;77.95
34696;BME280;75243;51.138;17.370;2024-02-04T12:03:31;99898.27;;;8.39;78.58
34696;BME280;75243;51.138;17.370;2024-02-04T12:06:32;99892.73;;;8.38;79.10
34696;BME280;75243;51.138;17.370;2024-02-04T12:09:33;99881.69;;;8.40;79.46
34696;BME280;75243;51.138;17.370;2024-02-04T12:12:36;99871.41;;;8.48;79.74
34696;BME280;75243;51.138;17.370;2024-02-04T12:15:37;99870.12;;;8.51;79.81
34696;BME280;75243;51.138;17.370;2024-02-04T12:18:49;99869.96;;;8.58;80.13
34696;BME280;75243;51.138;17.370;2024-02-04T12:21:50;99861.69;;;8.60;80.23
34696;BME280;75243;51.138;17.370;2024-02-04T12:24:51;99854.09;;;8.62;80.44
34696;BME280;75243;51.138;17.370;2024-02-04T12:27:51;99841.02;;;8.63;80.61
34696;BME280;75243;51.138;17.370;2024-02-04T12:30:53;99832.87;;;8.66;80.75
34696;BME280;75243;51.138;17.370;2024-02-04T12:33:59;99830.46;;;8.70;80.99
34696;BME280;75243;51.138;17.370;2024-02-04T12:37:01;99822.54;;;8.73;80.92
34696;BME280;75243;51.138;17.370;2024-02-04T12:40:02;99809.38;;;8.76;81.04
34696;BME280;75243;51.138;17.370;2024-02-04T12:43:05;99810.88;;;8.79;81.26
34696;BME280;75243;51.138;17.370;2024-02-04T12:46:09;99808.27;;;8.78;81.31
34696;BME280;75243;51.138;17.370;2024-02-04T12:49:17;99800.36;;;8.78;81.21
34696;BME280;75243;51.138;17.370;2024-02-04T12:52:20;99784.31;;;8.78;81.46
34696;BME280;75243;51.138;17.370;2024-02-04T12:55:24;99782.20;;;8.79;81.55
34696;BME280;75243;51.138;17.370;2024-02-04T12:58:28;99777.35;;;8.79;81.03
34696;BME280;75243;51.138;17.370;2024-02-04T13:01:28;99776.68;;;8.78;81.45
34696;BME280;75243;51.138;17.370;2024-02-04T13:04:36;99769.70;;;8.79;81.37
34696;BME280;75243;51.138;17.370;2024-02-04T13:07:37;99762.54;;;8.82;81.33
34696;BME280;75243;51.138;17.370;2024-02-04T13:10:38;99758.48;;;8.87;81.52
34696;BME280;75243;51.138;17.370;2024-02-04T13:13:40;99758.77;;;8.92;81.60
34696;BME280;75243;51.138;17.370;2024-02-04T13:16:41;99756.02;;;8.95;81.37
34696;BME280;75243;51.138;17.370;2024-02-04T13:19:42;99754.90;;;8.99;81.50
34696;BME280;75243;51.138;17.370;2024-02-04T13:22:47;99746.95;;;9.01;81.38
34696;BME280;75243;51.138;17.370;2024-02-04T13:25:48;99749.08;;;8.99;81.31
34696;BME280;75243;51.138;17.370;2024-02-04T13:28:49;99749.48;;;8.95;81.12
34696;BME280;75243;51.138;17.370;2024-02-04T13:31:49;99748.84;;;8.93;81.19
34696;BME280;75243;51.138;17.370;2024-02-04T13:34:50;99743.88;;;8.93;81.04
34696;BME280;75243;51.138;17.370;2024-02-04T13:37:53;99743.72;;;8.89;80.90
34696;BME280;75243;51.138;17.370;2024-02-04T13:40:55;99738.50;;;8.87;80.82
34696;BME280;75243;51.138;17.370;2024-02-04T13:43:56;99739.11;;;8.86;81.04
34696;BME280;75243;51.138;17.370;2024-02-04T13:46:59;99729.43;;;8.86;81.19
34696;BME280;75243;51.138;17.370;2024-02-04T13:50:01;99730.29;;;8.87;81.04
34696;BME280;75243;51.138;17.370;2024-02-04T13:53:02;99726.02;;;8.87;80.65
34696;BME280;75243;51.138;17.370;2024-02-04T13:56:08;99723.64;;;8.86;80.40
34696;BME280;75243;51.138;17.370;2024-02-04T13:59:09;99723.38;;;8.85;80.04
34696;BME280;75243;51.138;17.370;2024-02-04T14:02:10;99725.93;;;8.83;80.39
34696;BME280;75243;51.138;17.370;2024-02-04T14:05:10;99734.02;;;8.78;80.33
34696;BME280;75243;51.138;17.370;2024-02-04T14:08:11;99735.25;;;8.75;80.53
34696;BME280;75243;51.138;17.370;2024-02-04T14:14:41;99736.42;;;8.70;80.80
34696;BME280;75243;51.138;17.370;2024-02-04T14:21:17;99736.08;;;8.64;80.46
34696;BME280;75243;51.138;17.370;2024-02-04T14:24:18;99738.60;;;8.62;81.03
34696;BME280;75243;51.138;17.370;2024-02-04T14:27:18;99744.84;;;8.54;82.02
34696;BME280;75243;51.138;17.370;2024-02-04T14:30:19;99748.39;;;8.44;82.84
34696;BME280;75243;51.138;17.370;2024-02-04T14:33:20;99757.58;;;8.32;83.48
34696;BME280;75243;51.138;17.370;2024-02-04T14:36:20;99748.14;;;8.23;84.43
34696;BME280;75243;51.138;17.370;2024-02-04T14:39:21;99732.85;;;8.16;84.86
34696;BME280;75243;51.138;17.370;2024-02-04T14:42:22;99729.27;;;8.09;85.26
34696;BME280;75243;51.138;17.370;2024-02-04T14:45:22;99727.92;;;8.04;85.74
34696;BME280;75243;51.138;17.370;2024-02-04T14:48:23;99718.36;;;7.99;86.15
34696;BME280;75243;51.138;17.370;2024-02-04T14:51:24;99709.83;;;7.95;86.45
34696;BME280;75243;51.138;17.370;2024-02-04T14:54:24;99702.38;;;7.92;86.30
34696;BME280;75243;51.138;17.370;2024-02-04T14:57:28;99699.30;;;7.91;86.20
34696;BME280;75243;51.138;17.370;2024-02-04T15:00:30;99698.69;;;7.92;86.11
34696;BME280;75243;51.138;17.370;2024-02-04T15:03:31;99700.50;;;7.93;85.94
34696;BME280;75243;51.138;17.370;2024-02-04T15:06:31;99701.32;;;7.92;85.76
34696;BME280;75243;51.138;17.370;2024-02-04T15:09:35;99709.38;;;7.91;85.79
34696;BME280;75243;51.138;17.370;2024-02-04T15:12:36;99712.77;;;7.90;85.59
34696;BME280;75243;51.138;17.370;2024-02-04T15:15:38;99713.48;;;7.89;85.43
34696;BME280;75243;51.138;17.370;2024-02-04T15:18:38;99714.35;;;7.87;85.19
34696;BME280;75243;51.138;17.370;2024-02-04T15:21:40;99712.00;;;7.84;84.92
34696;BME280;75243;51.138;17.370;2024-02-04T15:24:43;99709.88;;;7.82;84.97
34696;BME280;75243;51.138;17.370;2024-02-04T15:27:45;99712.34;;;7.79;84.75
34696;BME280;75243;51.138;17.370;2024-02-04T15:30:47;99706.38;;;7.75;84.71
34696;BME280;75243;51.138;17.370;2024-02-04T15:33:47;99699.89;;;7.72;84.53
34696;BME280;75243;51.138;17.370;2024-02-04T15:36:48;99695.83;;;7.69;84.44
34696;BME280;75243;51.138;17.370;2024-02-04T15:39:50;99696.80;;;7.66;84.26
34696;BME280;75243;51.138;17.370;2024-02-04T15:42:53;99699.86;;;7.65;84.17
34696;BME280;75243;51.138;17.370;2024-02-04T15:45:55;99704.21;;;7.64;84.14
34696;BME280;75243;51.138;17.370;2024-02-04T15:49:02;99700.55;;;7.60;83.91
34696;BME280;75243;51.138;17.370;2024-02-04T15:52:10;99709.29;;;7.61;83.80
34696;BME280;75243;51.138;17.370;2024-02-04T15:55:11;99714.66;;;7.62;83.80
34696;BME280;75243;51.138;17.370;2024-02-04T15:58:20;99717.05;;;7.61;83.67
34696;BME280;75243;51.138;17.370;2024-02-04T16:01:22;99718.56;;;7.61;83.47
34696;BME280;75243;51.138;17.370;2024-02-04T16:04:25;99727.38;;;7.61;83.39
34696;BME280;75243;51.138;17.370;2024-02-04T16:07:25;99725.14;;;7.62;83.28
34696;BME280;75243;51.138;17.370;2024-02-04T16:10:26;99729.98;;;7.65;83.16
34696;BME280;75243;51.138;17.370;2024-02-04T16:13:31;99735.98;;;7.67;83.04
34696;BME280;75243;51.138;17.370;2024-02-04T16:16:37;99739.77;;;7.66;83.04